Terminal Aerodrome Forecast
Issued by NWS Spokane, WA

Home | Current Version | Previous Version | Text Only | Print | Product List | Glossary On
Versions: 1 2 3 4 5 6 7 8 9 10 11 12 13 14 15 16 17 18 19 20 21 22 23 24 25
000
FTUS46 KOTX 270520
TAFGEG
TAF
KGEG 270520Z 2706/2806 11005KT P6SM SCT040 BKN100
     FM271000 07006KT P6SM FEW060 SCT100 SCT200
     FM271900 04011KT P6SM SCT080 SCT200
     FM272100 04012G18KT P6SM FEW200
     FM280400 04010KT P6SM FEW200=

USA.gov is the U.S. government's official web portal to all federal, state and local government web resources and services.